createdAt,value
2023-05-21T00:01:50.190Z,3.13
2023-05-21T00:04:18.232Z,3.38
2023-05-21T00:06:47.502Z,3.30
2023-05-21T00:09:15.911Z,3.20
2023-05-21T00:11:43.832Z,3.38
2023-05-21T00:14:11.808Z,3.33
2023-05-21T00:16:39.912Z,3.20
2023-05-21T00:19:08.297Z,3.40
2023-05-21T00:21:36.401Z,3.22
2023-05-21T00:24:06.328Z,3.35
2023-05-21T00:26:34.307Z,3.08
2023-05-21T00:29:02.252Z,3.20
2023-05-21T00:31:30.335Z,3.20
2023-05-21T00:33:59.408Z,3.42
2023-05-21T00:36:27.730Z,3.25
2023-05-21T00:38:58.615Z,3.58
2023-05-21T00:41:30.310Z,3.33
2023-05-21T00:44:00.423Z,3.00
2023-05-21T00:46:29.609Z,3.22
2023-05-21T00:48:58.143Z,3.00
2023-05-21T00:51:30.366Z,3.10
2023-05-21T00:53:59.003Z,2.85
2023-05-21T00:56:31.430Z,3.03
2023-05-21T00:58:59.773Z,2.95
2023-05-21T01:01:27.804Z,2.38
2023-05-21T01:03:57.902Z,2.95
2023-05-21T01:06:25.888Z,2.83
2023-05-21T01:08:54.025Z,2.60
2023-05-21T01:11:23.157Z,2.70
2023-05-21T01:13:52.584Z,3.13
2023-05-21T01:16:21.516Z,2.83
2023-05-21T01:18:50.428Z,2.83
2023-05-21T01:21:21.718Z,3.30
2023-05-21T01:23:51.021Z,2.50
2023-05-21T01:26:18.884Z,2.80
2023-05-21T01:28:48.185Z,2.50
2023-05-21T01:31:32.445Z,3.05
2023-05-21T01:34:05.057Z,2.85
2023-05-21T01:36:40.959Z,2.90
2023-05-21T01:39:17.746Z,2.80
2023-05-21T01:41:48.744Z,2.65
2023-05-21T01:44:19.987Z,2.50
2023-05-21T01:46:48.023Z,2.97
2023-05-21T01:49:17.709Z,2.75
2023-05-21T01:51:46.036Z,2.55
2023-05-21T01:54:15.856Z,2.78
2023-05-21T01:56:43.800Z,2.70
2023-05-21T01:59:11.778Z,2.53
2023-05-21T02:01:40.024Z,2.85
2023-05-21T02:04:08.093Z,2.70
2023-05-21T02:06:39.567Z,2.90
2023-05-21T02:09:08.202Z,2.53
2023-05-21T02:11:37.609Z,2.97
2023-05-21T02:14:05.617Z,3.05
2023-05-21T02:16:33.681Z,2.40
2023-05-21T02:19:01.809Z,3.13
2023-05-21T02:21:29.785Z,2.83
2023-05-21T02:23:57.669Z,2.58
2023-05-21T02:26:25.628Z,2.88
2023-05-21T02:28:55.747Z,2.70
2023-05-21T02:31:23.824Z,2.70
2023-05-21T02:33:51.819Z,2.28
2023-05-21T02:36:19.905Z,2.78
2023-05-21T02:38:47.831Z,2.88
2023-05-21T02:41:15.848Z,2.83
2023-05-21T02:43:44.081Z,2.50
2023-05-21T02:46:13.473Z,2.60
2023-05-21T02:48:41.652Z,3.03
2023-05-21T02:51:09.641Z,2.83
2023-05-21T02:53:37.601Z,2.70
2023-05-21T02:56:06.846Z,2.80
2023-05-21T02:58:34.697Z,2.70
2023-05-21T03:01:02.607Z,3.38
2023-05-21T03:03:32.543Z,2.65
2023-05-21T03:06:00.507Z,2.92
2023-05-21T03:08:28.551Z,3.17
2023-05-21T03:10:56.480Z,2.83
2023-05-21T03:13:24.407Z,2.90
2023-05-21T03:15:56.305Z,2.97
2023-05-21T03:18:24.260Z,3.03
2023-05-21T03:20:53.476Z,2.83
2023-05-21T03:23:21.383Z,2.93
2023-05-21T03:25:49.547Z,3.03
2023-05-21T03:28:17.738Z,2.63
2023-05-21T03:30:46.821Z,2.50
2023-05-21T03:33:26.322Z,2.90
2023-05-21T03:35:56.138Z,2.80
2023-05-21T03:38:24.048Z,2.90
2023-05-21T03:40:51.966Z,3.00
2023-05-21T03:43:19.822Z,3.17
2023-05-21T03:45:47.799Z,2.73
2023-05-21T03:48:15.975Z,3.30
2023-05-21T03:50:43.938Z,3.00
2023-05-21T03:53:14.028Z,3.35
2023-05-21T03:55:42.036Z,2.97
2023-05-21T03:58:10.967Z,2.88
2023-05-21T04:00:39.160Z,3.10
2023-05-21T04:03:07.208Z,2.90
2023-05-21T04:05:35.448Z,2.65
2023-05-21T04:08:03.505Z,2.97
2023-05-21T04:10:32.792Z,2.87
2023-05-21T04:13:00.811Z,2.90
2023-05-21T04:15:28.832Z,2.92
2023-05-21T04:17:57.181Z,3.13
2023-05-21T04:20:25.273Z,2.90
2023-05-21T04:22:53.345Z,2.70
2023-05-21T04:25:22.049Z,3.00
2023-05-21T04:27:51.479Z,2.92
2023-05-21T04:30:20.259Z,3.58
2023-05-21T04:32:48.654Z,3.10
2023-05-21T04:35:17.639Z,3.05
2023-05-21T04:37:46.121Z,3.13
2023-05-21T04:40:18.462Z,2.95
2023-05-21T04:42:48.485Z,2.63
2023-05-21T04:45:18.055Z,2.63
2023-05-21T04:47:46.293Z,2.65
2023-05-21T04:50:14.499Z,2.90
2023-05-21T04:52:43.029Z,2.85
2023-05-21T04:55:11.334Z,2.85
2023-05-21T04:57:39.290Z,2.50
2023-05-21T05:00:09.156Z,2.78
2023-05-21T05:02:38.411Z,2.58
2023-05-21T05:05:07.109Z,2.38
2023-05-21T05:07:35.025Z,2.55
2023-05-21T05:10:03.294Z,2.80
2023-05-21T05:12:31.260Z,2.70
2023-05-21T05:14:59.200Z,2.97
2023-05-21T05:17:27.592Z,2.53
2023-05-21T05:19:56.899Z,2.47
2023-05-21T05:22:25.307Z,2.47
2023-05-21T05:24:53.241Z,2.42
2023-05-21T05:27:21.138Z,2.50
2023-05-21T05:29:49.307Z,2.25
2023-05-21T05:32:17.320Z,2.38
2023-05-21T05:34:47.408Z,2.08
2023-05-21T05:37:16.687Z,2.38
2023-05-21T05:39:44.582Z,2.10
2023-05-21T05:42:12.622Z,2.10
2023-05-21T05:44:40.901Z,1.88
2023-05-21T05:47:10.899Z,2.00
2023-05-21T05:49:38.763Z,2.08
2023-05-21T05:52:07.433Z,1.65
2023-05-21T05:54:36.739Z,2.00
2023-05-21T05:57:05.055Z,1.83
2023-05-21T05:59:33.913Z,1.85
2023-05-21T06:02:01.883Z,1.90
2023-05-21T06:04:30.331Z,2.10
2023-05-21T06:06:58.654Z,1.88
2023-05-21T06:09:26.728Z,1.90
2023-05-21T06:11:55.972Z,2.08
2023-05-21T06:14:23.869Z,2.00
2023-05-21T06:16:51.721Z,2.20
2023-05-21T06:19:20.166Z,2.17
2023-05-21T06:21:48.582Z,2.20
2023-05-21T06:24:16.839Z,1.73
2023-05-21T06:26:44.719Z,2.25
2023-05-21T06:29:15.516Z,1.67
2023-05-21T06:31:43.565Z,2.05
2023-05-21T06:34:11.999Z,1.92
2023-05-21T06:36:39.975Z,1.90
2023-05-21T06:39:07.964Z,1.67
2023-05-21T06:41:36.228Z,1.88
2023-05-21T06:44:04.235Z,1.85
2023-05-21T06:46:33.782Z,1.90
2023-05-21T06:49:02.111Z,1.70
2023-05-21T06:51:30.038Z,2.05
2023-05-21T06:53:57.895Z,1.90
2023-05-21T06:56:26.574Z,2.10
2023-05-21T06:58:54.665Z,1.88
2023-05-21T07:01:23.517Z,2.13
2023-05-21T07:03:53.138Z,2.25
2023-05-21T07:06:21.099Z,1.90
2023-05-21T07:08:49.996Z,2.00
2023-05-21T07:11:17.920Z,1.75
2023-05-21T07:13:46.221Z,1.92
2023-05-21T07:16:14.232Z,2.00
2023-05-21T07:18:42.216Z,2.13
2023-05-21T07:21:11.753Z,1.88
2023-05-21T07:23:39.844Z,2.10
2023-05-21T07:26:07.994Z,1.92
2023-05-21T07:28:35.980Z,2.03
2023-05-21T07:31:04.188Z,2.05
2023-05-21T07:33:32.318Z,2.15
2023-05-21T07:36:01.720Z,2.03
2023-05-21T07:38:31.116Z,1.52
2023-05-21T07:40:59.124Z,1.80
2023-05-21T07:43:27.083Z,1.98
2023-05-21T07:45:55.131Z,1.85
2023-05-21T07:48:23.029Z,2.00
2023-05-21T07:50:52.756Z,1.70
2023-05-21T07:53:20.931Z,1.42
2023-05-21T07:55:50.226Z,1.70
2023-05-21T07:58:18.906Z,2.25
2023-05-21T08:00:48.444Z,1.73
2023-05-21T08:03:17.766Z,1.75
2023-05-21T08:05:49.757Z,1.80
2023-05-21T08:08:18.662Z,1.73
2023-05-21T08:10:47.909Z,1.60
2023-05-21T08:13:17.958Z,1.60
2023-05-21T08:15:45.964Z,1.80
2023-05-21T08:18:13.885Z,1.35
2023-05-21T08:20:42.643Z,1.52
2023-05-21T08:23:10.894Z,1.63
2023-05-21T08:25:39.100Z,1.92
2023-05-21T08:28:07.244Z,1.70
2023-05-21T08:30:36.777Z,1.77
2023-05-21T08:33:04.911Z,1.20
2023-05-21T08:35:33.011Z,1.60
2023-05-21T08:38:01.086Z,1.35
2023-05-21T08:40:29.040Z,1.80
2023-05-21T08:42:57.102Z,1.70
2023-05-21T08:45:25.317Z,3.55
2023-05-21T08:47:58.449Z,1.90
2023-05-21T08:50:29.199Z,1.60
2023-05-21T08:52:59.077Z,1.33
2023-05-21T08:55:27.679Z,1.60
2023-05-21T08:57:58.880Z,1.70
2023-05-21T09:00:26.841Z,1.55
2023-05-21T09:02:56.379Z,1.60
2023-05-21T09:05:26.147Z,1.52
2023-05-21T09:08:05.554Z,1.50
2023-05-21T09:10:37.781Z,1.30
2023-05-21T09:13:08.025Z,1.58
2023-05-21T09:15:36.229Z,1.33
2023-05-21T09:18:05.816Z,1.70
2023-05-21T09:20:33.958Z,1.88
2023-05-21T09:23:04.541Z,1.67
2023-05-21T09:25:33.182Z,1.38
2023-05-21T09:28:01.216Z,1.90
2023-05-21T09:30:31.318Z,1.50
2023-05-21T09:33:01.833Z,1.38
2023-05-21T09:35:31.641Z,1.60
2023-05-21T09:37:59.764Z,1.60
2023-05-21T09:40:27.710Z,1.80
2023-05-21T09:42:56.744Z,1.60
2023-05-21T09:45:26.566Z,1.60
2023-05-21T09:47:56.023Z,1.85
2023-05-21T09:50:25.230Z,1.55
2023-05-21T09:52:55.593Z,1.77
2023-05-21T09:55:24.491Z,1.65
2023-05-21T09:57:53.042Z,1.58
2023-05-21T10:00:22.450Z,1.73
2023-05-21T10:02:51.738Z,2.03
2023-05-21T10:05:20.214Z,1.90
2023-05-21T10:07:51.512Z,1.45
2023-05-21T10:10:22.827Z,1.83
2023-05-21T10:13:01.731Z,1.60
2023-05-21T10:15:33.039Z,1.75
2023-05-21T10:18:02.122Z,1.55
2023-05-21T10:20:30.721Z,1.48
2023-05-21T10:23:00.080Z,1.58
2023-05-21T10:25:32.139Z,1.45
2023-05-21T10:28:00.208Z,1.67
2023-05-21T10:30:28.946Z,1.65
2023-05-21T10:32:58.154Z,1.77
2023-05-21T10:35:26.318Z,1.50
2023-05-21T10:37:55.559Z,1.30
2023-05-21T10:40:23.518Z,1.20
2023-05-21T10:43:20.831Z,1.30
2023-05-21T10:46:03.128Z,1.77
2023-05-21T10:48:46.764Z,1.40
2023-05-21T10:51:23.766Z,1.60
2023-05-21T10:54:32.998Z,1.60
2023-05-21T10:57:12.745Z,1.88
2023-05-21T10:59:44.880Z,1.77
2023-05-21T11:02:15.221Z,1.50
2023-05-21T11:04:49.000Z,1.55
2023-05-21T11:07:24.882Z,1.67
2023-05-21T11:09:52.841Z,1.55
2023-05-21T11:12:23.390Z,1.67
2023-05-21T11:14:59.194Z,1.60
2023-05-21T11:17:42.160Z,1.85
2023-05-21T11:20:13.576Z,1.52
2023-05-21T11:22:41.490Z,1.60
2023-05-21T11:25:10.042Z,1.63
2023-05-21T11:27:39.471Z,1.58
2023-05-21T11:30:11.163Z,1.60
2023-05-21T11:32:40.094Z,1.65
2023-05-21T11:35:09.117Z,1.73
2023-05-21T11:37:40.716Z,1.70
2023-05-21T11:40:28.436Z,1.58
2023-05-21T11:42:57.618Z,1.88
2023-05-21T11:45:32.064Z,1.70
2023-05-21T11:48:01.347Z,2.05
2023-05-21T11:50:33.763Z,1.60
2023-05-21T11:53:01.997Z,1.85
2023-05-21T11:55:29.841Z,1.75
2023-05-21T11:57:59.569Z,1.75
2023-05-21T12:00:28.862Z,1.85
2023-05-21T12:02:57.265Z,1.80
2023-05-21T12:05:27.179Z,1.77
2023-05-21T12:07:56.751Z,1.63
2023-05-21T12:10:24.906Z,1.70
2023-05-21T12:12:56.893Z,1.60
2023-05-21T12:15:27.252Z,1.38
2023-05-21T12:17:57.910Z,1.80
2023-05-21T12:20:28.586Z,1.60
2023-05-21T12:22:58.980Z,1.50
2023-05-21T12:25:27.698Z,1.60
2023-05-21T12:27:58.104Z,1.58
2023-05-21T12:30:27.174Z,1.77
2023-05-21T12:32:55.107Z,1.40
2023-05-21T12:35:24.949Z,1.50
2023-05-21T12:37:53.520Z,1.80
2023-05-21T12:40:22.534Z,1.60
2023-05-21T12:42:51.015Z,1.75
2023-05-21T12:45:21.127Z,1.80
2023-05-21T12:47:50.798Z,2.13
2023-05-21T12:50:22.229Z,1.80
2023-05-21T12:52:55.801Z,1.67
2023-05-21T12:55:24.815Z,1.60
2023-05-21T12:58:03.669Z,1.98
2023-05-21T13:00:33.282Z,1.85
2023-05-21T13:03:02.200Z,1.88
2023-05-21T13:05:30.180Z,2.00
2023-05-21T13:07:59.556Z,1.50
2023-05-21T13:10:27.440Z,1.70
2023-05-21T13:12:55.329Z,1.80
2023-05-21T13:15:23.191Z,1.60
2023-05-21T13:17:52.545Z,1.80
2023-05-21T13:20:23.839Z,1.42
2023-05-21T13:22:52.541Z,1.48
2023-05-21T13:25:24.934Z,2.17
2023-05-21T13:27:54.309Z,2.00
2023-05-21T13:30:23.189Z,2.13
2023-05-21T13:32:52.341Z,1.35
2023-05-21T13:35:20.606Z,1.55
2023-05-21T13:37:48.481Z,1.58
2023-05-21T13:40:17.232Z,1.52
2023-05-21T13:42:48.003Z,1.70
2023-05-21T13:45:17.274Z,1.60
2023-05-21T13:47:46.053Z,1.50
2023-05-21T13:50:14.138Z,1.67
2023-05-21T13:52:42.358Z,1.75
2023-05-21T13:55:11.801Z,1.55
2023-05-21T13:57:40.768Z,1.33
2023-05-21T14:00:14.185Z,1.25
2023-05-21T14:02:43.061Z,1.33
2023-05-21T14:05:12.670Z,1.55
2023-05-21T14:07:42.003Z,1.63
2023-05-21T14:10:10.576Z,1.52
2023-05-21T14:12:38.873Z,1.80
2023-05-21T14:15:07.889Z,1.65
2023-05-21T14:17:37.467Z,1.35
2023-05-21T14:20:06.390Z,1.70
2023-05-21T14:22:34.240Z,1.70
2023-05-21T14:25:03.343Z,1.80
2023-05-21T14:27:31.256Z,1.27
2023-05-21T14:29:59.084Z,1.73
2023-05-21T14:32:27.223Z,1.45
2023-05-21T14:34:56.871Z,1.58
2023-05-21T14:37:24.831Z,1.60
2023-05-21T14:39:52.867Z,1.70
2023-05-21T14:42:20.946Z,1.48
2023-05-21T14:44:49.253Z,1.40
2023-05-21T14:47:17.310Z,1.63
2023-05-21T14:49:45.270Z,1.65
2023-05-21T14:52:14.654Z,1.80
2023-05-21T14:54:42.576Z,1.60
2023-05-21T14:57:10.549Z,1.60
2023-05-21T14:59:38.479Z,1.75
2023-05-21T15:02:06.979Z,1.63
2023-05-21T15:04:34.940Z,1.50
2023-05-21T15:07:02.902Z,1.42
2023-05-21T15:09:32.212Z,1.50
2023-05-21T15:12:00.321Z,1.42
2023-05-21T15:14:28.321Z,1.58
2023-05-21T15:16:56.232Z,1.55
2023-05-21T15:19:24.250Z,1.70
2023-05-21T15:21:52.604Z,1.33
2023-05-21T15:24:20.568Z,1.60
2023-05-21T15:26:49.936Z,1.70
2023-05-21T15:29:17.832Z,1.80
2023-05-21T15:31:45.830Z,1.50
2023-05-21T15:34:13.967Z,1.40
2023-05-21T15:36:42.144Z,1.67
2023-05-21T15:39:10.105Z,1.45
2023-05-21T15:41:38.617Z,1.77
2023-05-21T15:44:07.890Z,1.52
2023-05-21T15:46:35.810Z,1.58
2023-05-21T15:49:03.757Z,1.15
2023-05-21T15:51:31.766Z,1.63
2023-05-21T15:53:59.701Z,1.52
2023-05-21T15:56:27.830Z,1.48
2023-05-21T15:58:58.286Z,1.80
2023-05-21T16:01:28.597Z,1.48
2023-05-21T16:03:56.766Z,1.77
2023-05-21T16:06:24.823Z,1.80
2023-05-21T16:08:52.807Z,1.85
2023-05-21T16:11:21.561Z,1.40
2023-05-21T16:13:49.557Z,1.75
2023-05-21T16:16:17.567Z,1.73
2023-05-21T16:18:46.968Z,2.22
2023-05-21T16:21:16.007Z,1.63
2023-05-21T16:23:43.959Z,1.58
2023-05-21T16:26:12.147Z,1.80
2023-05-21T16:28:40.154Z,1.80
2023-05-21T16:31:08.669Z,1.50
2023-05-21T16:33:36.690Z,1.52
2023-05-21T16:36:06.195Z,1.60
2023-05-21T16:38:34.102Z,1.65
2023-05-21T16:41:02.002Z,1.70
2023-05-21T16:43:29.895Z,1.80
2023-05-21T16:45:57.874Z,1.83
2023-05-21T16:48:25.817Z,1.50
2023-05-21T16:50:53.823Z,1.70
2023-05-21T16:53:23.423Z,1.77
2023-05-21T16:55:51.737Z,1.75
2023-05-21T16:58:19.915Z,2.00
2023-05-21T17:00:47.916Z,1.90
2023-05-21T17:03:16.176Z,1.50
2023-05-21T17:05:44.393Z,1.73
2023-05-21T17:08:12.366Z,1.88
2023-05-21T17:10:41.686Z,1.60
2023-05-21T17:13:21.443Z,1.90
2023-05-21T17:15:51.166Z,1.73
2023-05-21T17:18:19.364Z,1.50
2023-05-21T17:20:47.548Z,1.63
2023-05-21T17:23:15.479Z,1.55
2023-05-21T17:25:44.942Z,1.60
2023-05-21T17:28:12.843Z,1.65
2023-05-21T17:30:40.930Z,1.92
2023-05-21T17:33:10.524Z,1.75
2023-05-21T17:35:39.000Z,1.80
2023-05-21T17:38:07.408Z,1.50
2023-05-21T17:40:35.649Z,1.83
2023-05-21T17:43:07.292Z,1.63
2023-05-21T17:45:35.707Z,2.10
2023-05-21T17:48:04.306Z,2.00
2023-05-21T17:50:32.258Z,2.13
2023-05-21T17:53:00.457Z,1.90
2023-05-21T17:55:28.316Z,1.67
2023-05-21T17:57:56.269Z,1.90
2023-05-21T18:00:25.867Z,1.85
2023-05-21T18:02:53.793Z,1.80
2023-05-21T18:05:22.890Z,2.05
2023-05-21T18:07:51.345Z,2.05
2023-05-21T18:10:19.369Z,2.10
2023-05-21T18:12:47.355Z,1.98
2023-05-21T18:15:16.066Z,1.80
2023-05-21T18:17:45.548Z,1.90
2023-05-21T18:20:14.997Z,2.20
2023-05-21T18:22:43.086Z,2.30
2023-05-21T18:25:11.585Z,2.92
2023-05-21T18:27:40.239Z,3.30
2023-05-21T18:30:09.416Z,2.15
2023-05-21T18:32:39.987Z,2.33
2023-05-21T18:35:12.534Z,2.35
2023-05-21T18:37:44.525Z,2.22
2023-05-21T18:40:14.163Z,2.40
2023-05-21T18:42:42.278Z,2.40
2023-05-21T18:45:11.732Z,2.28
2023-05-21T18:47:40.590Z,2.45
2023-05-21T18:50:12.175Z,2.40
2023-05-21T18:52:40.171Z,2.50
2023-05-21T18:55:08.907Z,2.20
2023-05-21T18:57:38.156Z,2.30
2023-05-21T19:00:09.591Z,2.55
2023-05-21T19:02:38.272Z,2.30
2023-05-21T19:05:07.407Z,2.60
2023-05-21T19:07:37.352Z,2.28
2023-05-21T19:10:06.237Z,5.00
2023-05-21T19:12:36.165Z,3.65
2023-05-21T19:15:04.249Z,2.72
2023-05-21T19:17:33.558Z,3.10
2023-05-21T19:20:01.659Z,2.53
2023-05-21T19:22:30.039Z,2.67
2023-05-21T19:25:00.778Z,2.78
2023-05-21T19:27:29.577Z,2.80
2023-05-21T19:29:57.682Z,5.78
2023-05-21T19:32:25.710Z,2.78
2023-05-21T19:34:53.733Z,2.40
2023-05-21T19:37:21.731Z,2.40
2023-05-21T19:39:50.475Z,2.90
2023-05-21T19:42:21.622Z,2.85
2023-05-21T19:44:49.822Z,3.05
2023-05-21T19:47:17.791Z,2.55
2023-05-21T19:49:45.713Z,3.10
2023-05-21T19:52:13.813Z,5.40
2023-05-21T19:54:41.723Z,2.50
2023-05-21T19:57:12.379Z,2.50
2023-05-21T19:59:41.988Z,2.60
2023-05-21T20:02:13.277Z,2.75
2023-05-21T20:04:41.548Z,3.00
2023-05-21T20:07:09.489Z,3.05
2023-05-21T20:09:37.502Z,2.97
2023-05-21T20:12:06.282Z,2.78
2023-05-21T20:14:34.568Z,2.85
2023-05-21T20:17:05.641Z,2.75
2023-05-21T20:19:33.817Z,2.80
2023-05-21T20:22:01.861Z,2.88
2023-05-21T20:24:29.809Z,2.33
2023-05-21T20:26:57.814Z,3.20
2023-05-21T20:29:25.862Z,3.05
2023-05-21T20:31:53.868Z,2.83
2023-05-21T20:34:24.718Z,3.47
2023-05-21T20:36:52.847Z,3.30
2023-05-21T20:39:22.145Z,3.10
2023-05-21T20:41:50.275Z,2.90
2023-05-21T20:44:18.839Z,2.85
2023-05-21T20:46:47.833Z,3.28
2023-05-21T20:49:17.759Z,3.17
2023-05-21T20:51:47.527Z,3.58
2023-05-21T20:54:15.530Z,3.10
2023-05-21T20:56:45.054Z,3.17
2023-05-21T20:59:13.126Z,3.63
2023-05-21T21:01:41.869Z,3.97
2023-05-21T21:04:10.059Z,3.90
2023-05-21T21:06:38.714Z,3.35
2023-05-21T21:09:08.585Z,3.60
2023-05-21T21:11:36.508Z,3.97
2023-05-21T21:14:04.569Z,3.53
2023-05-21T21:16:32.603Z,3.47
2023-05-21T21:19:00.516Z,3.95
2023-05-21T21:21:29.237Z,3.88
2023-05-21T21:23:57.392Z,4.20
2023-05-21T21:26:27.236Z,4.22
2023-05-21T21:28:56.364Z,4.30
2023-05-21T21:31:25.059Z,4.03
2023-05-21T21:33:53.311Z,4.63
2023-05-21T21:36:21.439Z,4.60
2023-05-21T21:38:51.830Z,4.35
2023-05-21T21:41:22.049Z,4.38
2023-05-21T21:43:53.764Z,4.97
2023-05-21T21:46:21.971Z,4.70
2023-05-21T21:48:50.253Z,4.32
2023-05-21T21:51:19.106Z,4.18
2023-05-21T21:53:48.329Z,3.92
2023-05-21T21:56:16.425Z,4.70
2023-05-21T21:58:44.705Z,4.65
2023-05-21T22:01:14.052Z,4.20
2023-05-21T22:03:42.219Z,4.70
2023-05-21T22:06:10.301Z,4.75
2023-05-21T22:08:38.256Z,4.20
2023-05-21T22:11:06.240Z,4.10
2023-05-21T22:13:34.409Z,4.18
2023-05-21T22:16:03.326Z,3.95
2023-05-21T22:18:40.989Z,4.05
2023-05-21T22:21:10.697Z,3.72
2023-05-21T22:23:39.505Z,3.70
2023-05-21T22:26:07.725Z,3.72
2023-05-21T22:28:35.797Z,3.75
2023-05-21T22:31:03.917Z,3.80
2023-05-21T22:33:33.547Z,3.33
2023-05-21T22:36:01.623Z,3.33
2023-05-21T22:38:29.547Z,3.30
2023-05-21T22:40:57.683Z,3.58
2023-05-21T22:43:26.746Z,3.00
2023-05-21T22:45:54.664Z,3.47
2023-05-21T22:48:23.386Z,3.33
2023-05-21T22:50:53.612Z,3.28
2023-05-21T22:53:21.886Z,3.20
2023-05-21T22:55:50.209Z,3.60
2023-05-21T22:58:18.603Z,3.47
2023-05-21T23:00:46.822Z,3.20
2023-05-21T23:03:14.844Z,3.75
2023-05-21T23:05:43.176Z,3.83
2023-05-21T23:08:12.615Z,3.42
2023-05-21T23:10:40.990Z,3.47
2023-05-21T23:13:09.432Z,4.05
2023-05-21T23:15:39.129Z,4.07
2023-05-21T23:18:08.760Z,3.63
2023-05-21T23:20:39.554Z,3.03
2023-05-21T23:23:07.868Z,3.17
2023-05-21T23:25:38.379Z,3.30
2023-05-21T23:28:06.688Z,3.38
2023-05-21T23:30:34.576Z,3.42
2023-05-21T23:33:02.697Z,3.42
2023-05-21T23:35:30.848Z,3.55
2023-05-21T23:37:58.766Z,3.10
2023-05-21T23:40:26.757Z,3.10
2023-05-21T23:42:56.365Z,3.78
2023-05-21T23:45:24.310Z,2.88
2023-05-21T23:47:53.451Z,3.17
2023-05-21T23:50:21.450Z,2.90
2023-05-21T23:52:49.395Z,3.15
2023-05-21T23:55:17.642Z,2.75
2023-05-21T23:57:46.118Z,2.85
